createdAt,value
2023-08-21T00:00:06.855Z,5.85
2023-08-21T00:02:35.141Z,5.70
2023-08-21T00:05:03.101Z,6.53
2023-08-21T00:07:31.093Z,5.80
2023-08-21T00:09:58.772Z,5.72
2023-08-21T00:12:26.212Z,5.60
2023-08-21T00:14:53.685Z,6.30
2023-08-21T00:17:21.184Z,5.30
2023-08-21T00:19:48.613Z,5.25
2023-08-21T00:22:16.025Z,5.70
2023-08-21T00:24:43.384Z,5.60
2023-08-21T00:27:10.771Z,6.15
2023-08-21T00:29:38.336Z,5.40
2023-08-21T00:32:07.675Z,5.60
2023-08-21T00:34:35.269Z,5.90
2023-08-21T00:37:02.633Z,5.45
2023-08-21T00:39:30.099Z,5.80
2023-08-21T00:41:57.760Z,5.32
2023-08-21T00:44:25.118Z,5.15
2023-08-21T00:46:52.525Z,5.43
2023-08-21T00:49:19.925Z,5.25
2023-08-21T00:51:47.589Z,5.13
2023-08-21T00:54:15.014Z,5.25
2023-08-21T00:56:42.376Z,4.65
2023-08-21T00:59:10.334Z,5.20
2023-08-21T01:01:38.864Z,5.20
2023-08-21T01:04:06.319Z,5.90
2023-08-21T01:06:33.742Z,5.80
2023-08-21T01:09:10.768Z,5.43
2023-08-21T01:11:38.128Z,6.05
2023-08-21T01:14:12.563Z,5.95
2023-08-21T01:16:41.088Z,5.57
2023-08-21T01:19:11.959Z,6.32
2023-08-21T01:21:39.416Z,5.75
2023-08-21T01:24:06.798Z,5.70
2023-08-21T01:26:34.168Z,5.45
2023-08-21T01:29:01.512Z,5.47
2023-08-21T01:31:32.991Z,5.78
2023-08-21T01:36:30.416Z,5.78
2023-08-21T01:38:57.968Z,6.20
2023-08-21T01:41:26.146Z,6.15
2023-08-21T01:43:55.195Z,5.57
2023-08-21T01:46:22.645Z,5.60
2023-08-21T01:48:50.040Z,5.90
2023-08-21T01:51:17.456Z,5.70
2023-08-21T01:53:45.827Z,5.63
2023-08-21T01:56:13.288Z,5.55
2023-08-21T01:58:40.719Z,5.43
2023-08-21T02:01:08.427Z,5.40
2023-08-21T02:03:35.867Z,5.32
2023-08-21T02:06:03.315Z,5.78
2023-08-21T02:08:35.045Z,5.63
2023-08-21T02:11:02.657Z,5.72
2023-08-21T02:13:30.433Z,4.95
2023-08-21T02:15:57.929Z,5.30
2023-08-21T02:18:25.390Z,5.82
2023-08-21T02:20:52.805Z,5.80
2023-08-21T02:23:20.191Z,5.60
2023-08-21T02:25:50.073Z,5.30
2023-08-21T02:28:17.960Z,5.30
2023-08-21T02:30:45.334Z,5.43
2023-08-21T02:33:12.804Z,5.82
2023-08-21T02:35:40.248Z,5.68
2023-08-21T02:38:07.785Z,5.55
2023-08-21T02:40:37.915Z,6.00
2023-08-21T02:43:05.317Z,5.70
2023-08-21T02:45:32.716Z,5.55
2023-08-21T02:48:00.410Z,5.60
2023-08-21T02:50:27.840Z,5.80
2023-08-21T02:52:55.245Z,5.75
2023-08-21T02:55:22.819Z,5.85
2023-08-21T02:57:50.406Z,5.85
2023-08-21T03:00:17.837Z,6.07
2023-08-21T03:02:45.614Z,5.65
2023-08-21T03:05:14.294Z,5.18
2023-08-21T03:07:41.641Z,5.20
2023-08-21T03:10:09.547Z,5.40
2023-08-21T03:12:37.218Z,5.63
2023-08-21T03:15:05.310Z,5.82
2023-08-21T03:17:33.115Z,5.18
2023-08-21T03:20:01.035Z,5.68
2023-08-21T03:22:28.513Z,5.95
2023-08-21T03:24:55.951Z,5.70
2023-08-21T03:27:23.550Z,5.72
2023-08-21T03:29:52.854Z,5.43
2023-08-21T03:32:20.529Z,5.65
2023-08-21T03:34:48.215Z,5.68
2023-08-21T03:37:16.043Z,6.32
2023-08-21T03:39:43.531Z,5.97
2023-08-21T03:42:12.367Z,5.38
2023-08-21T03:44:41.320Z,6.00
2023-08-21T03:47:09.035Z,5.90
2023-08-21T03:49:45.167Z,5.68
2023-08-21T03:52:12.636Z,6.05
2023-08-21T03:54:40.023Z,6.35
2023-08-21T03:57:08.290Z,5.70
2023-08-21T03:59:35.744Z,6.22
2023-08-21T04:02:03.271Z,6.47
2023-08-21T04:04:30.646Z,5.60
2023-08-21T04:06:58.043Z,6.68
2023-08-21T04:09:25.424Z,5.80
2023-08-21T04:11:52.822Z,6.18
2023-08-21T04:14:20.562Z,5.85
2023-08-21T04:16:48.622Z,6.57
2023-08-21T04:19:15.948Z,6.25
2023-08-21T04:21:43.370Z,6.20
2023-08-21T04:24:10.757Z,6.80
2023-08-21T04:26:38.459Z,5.85
2023-08-21T04:29:16.461Z,5.90
2023-08-21T04:31:44.088Z,6.10
2023-08-21T04:34:11.544Z,6.00
2023-08-21T04:36:39.017Z,5.68
2023-08-21T04:39:06.542Z,6.53
2023-08-21T04:41:34.940Z,6.18
2023-08-21T04:44:06.256Z,13.15
2023-08-21T04:46:33.704Z,6.85
2023-08-21T04:49:01.243Z,6.00
2023-08-21T04:51:28.753Z,6.05
2023-08-21T04:53:56.262Z,5.50
2023-08-21T04:56:24.317Z,5.88
2023-08-21T04:58:51.686Z,5.88
2023-08-21T05:01:20.028Z,5.93
2023-08-21T05:03:49.974Z,5.57
2023-08-21T05:06:17.536Z,5.72
2023-08-21T05:08:45.694Z,6.80
2023-08-21T05:11:13.261Z,5.88
2023-08-21T05:13:43.281Z,5.72
2023-08-21T05:16:21.681Z,5.93
2023-08-21T05:18:49.722Z,5.50
2023-08-21T05:21:17.920Z,5.80
2023-08-21T05:23:45.370Z,5.95
2023-08-21T05:26:12.778Z,5.90
2023-08-21T05:28:40.233Z,5.65
2023-08-21T05:31:07.646Z,6.35
2023-08-21T05:33:46.679Z,5.70
2023-08-21T05:36:15.151Z,6.05
2023-08-21T05:38:42.542Z,6.55
2023-08-21T05:41:09.983Z,6.25
2023-08-21T05:43:37.523Z,6.57
2023-08-21T05:46:07.427Z,6.25
2023-08-21T05:48:35.296Z,7.10
2023-08-21T05:51:04.271Z,6.57
2023-08-21T05:53:35.191Z,6.38
2023-08-21T05:56:04.660Z,7.75
2023-08-21T05:58:33.854Z,7.35
2023-08-21T06:01:01.381Z,7.50
2023-08-21T06:03:29.722Z,7.03
2023-08-21T06:06:07.081Z,6.85
2023-08-21T06:08:37.172Z,6.32
2023-08-21T06:11:08.796Z,6.43
2023-08-21T06:13:36.192Z,7.45
2023-08-21T06:16:03.870Z,6.40
2023-08-21T06:18:32.567Z,6.22
2023-08-21T06:20:59.868Z,5.55
2023-08-21T06:23:27.254Z,5.85
2023-08-21T06:25:54.660Z,5.47
2023-08-21T06:28:23.539Z,5.70
2023-08-21T06:30:58.325Z,5.82
2023-08-21T06:33:26.156Z,6.07
2023-08-21T06:35:55.553Z,5.60
2023-08-21T06:38:22.873Z,5.72
2023-08-21T06:40:50.234Z,6.30
2023-08-21T06:43:17.854Z,5.53
2023-08-21T06:45:48.591Z,5.68
2023-08-21T06:48:15.989Z,5.57
2023-08-21T06:50:43.287Z,5.57
2023-08-21T06:53:10.560Z,6.10
2023-08-21T06:55:37.831Z,5.60
2023-08-21T06:58:05.140Z,6.53
2023-08-21T07:00:32.541Z,5.93
2023-08-21T07:02:59.931Z,6.10
2023-08-21T07:05:27.316Z,6.22
2023-08-21T07:07:56.055Z,5.93
2023-08-21T07:10:23.434Z,5.88
2023-08-21T07:12:50.735Z,5.53
2023-08-21T07:15:18.052Z,5.45
2023-08-21T07:17:45.451Z,5.82
2023-08-21T07:20:14.158Z,5.78
2023-08-21T07:22:41.767Z,6.20
2023-08-21T07:25:09.816Z,5.85
2023-08-21T07:27:37.205Z,5.60
2023-08-21T07:30:05.108Z,5.50
2023-08-21T07:32:32.564Z,6.25
2023-08-21T07:35:00.010Z,5.75
2023-08-21T07:37:27.367Z,6.00
2023-08-21T07:39:58.018Z,6.53
2023-08-21T07:42:25.457Z,5.80
2023-08-21T07:44:52.765Z,5.45
2023-08-21T07:47:20.189Z,5.72
2023-08-21T07:49:47.485Z,6.22
2023-08-21T07:52:14.870Z,6.25
2023-08-21T07:54:42.858Z,6.00
2023-08-21T07:57:10.229Z,5.80
2023-08-21T07:59:37.507Z,5.65
2023-08-21T08:02:05.515Z,5.88
2023-08-21T08:04:32.808Z,5.70
2023-08-21T08:07:00.221Z,6.03
2023-08-21T08:09:27.508Z,5.97
2023-08-21T08:11:55.206Z,5.72
2023-08-21T08:14:22.583Z,5.97
2023-08-21T08:16:50.081Z,6.15
2023-08-21T08:19:17.634Z,5.70
2023-08-21T08:21:45.702Z,5.65
2023-08-21T08:24:13.371Z,5.70
2023-08-21T08:26:42.783Z,6.35
2023-08-21T08:29:10.673Z,5.90
2023-08-21T08:31:40.080Z,5.90
2023-08-21T08:34:07.757Z,5.88
2023-08-21T08:36:35.311Z,5.90
2023-08-21T08:39:02.982Z,6.20
2023-08-21T08:41:43.951Z,5.65
2023-08-21T08:44:11.856Z,6.00
2023-08-21T08:46:39.437Z,5.78
2023-08-21T08:49:07.522Z,6.28
2023-08-21T08:51:38.271Z,5.90
2023-08-21T08:54:06.120Z,6.13
2023-08-21T08:56:33.781Z,6.05
2023-08-21T08:59:01.358Z,5.85
2023-08-21T09:01:28.980Z,5.72
2023-08-21T09:03:56.645Z,5.10
2023-08-21T09:06:24.462Z,6.30
2023-08-21T09:08:56.202Z,6.05
2023-08-21T09:11:24.048Z,5.47
2023-08-21T09:13:52.326Z,5.35
2023-08-21T09:16:20.448Z,5.68
2023-08-21T09:18:55.170Z,6.03
2023-08-21T09:21:23.280Z,5.78
2023-08-21T09:23:52.857Z,5.57
2023-08-21T09:26:23.968Z,5.53
2023-08-21T09:28:51.981Z,5.10
2023-08-21T09:31:31.234Z,4.60
2023-08-21T09:34:00.361Z,5.03
2023-08-21T09:36:28.492Z,5.10
2023-08-21T09:38:56.493Z,5.22
2023-08-21T09:41:24.562Z,5.25
2023-08-21T09:43:52.248Z,4.97
2023-08-21T09:46:27.331Z,4.97
2023-08-21T09:48:55.362Z,5.22
2023-08-21T09:51:23.413Z,5.53
2023-08-21T09:53:51.401Z,5.18
2023-08-21T09:56:20.841Z,5.10
2023-08-21T09:58:50.379Z,5.53
2023-08-21T10:01:19.371Z,5.10
2023-08-21T10:03:49.028Z,4.97
2023-08-21T10:06:23.486Z,5.47
2023-08-21T10:08:55.011Z,5.45
2023-08-21T10:11:23.225Z,4.90
2023-08-21T10:13:52.430Z,5.53
2023-08-21T10:16:22.079Z,6.00
2023-08-21T10:18:50.131Z,5.15
2023-08-21T10:21:27.073Z,5.18
2023-08-21T10:23:57.785Z,4.75
2023-08-21T10:29:03.790Z,5.30
2023-08-21T10:31:41.637Z,5.30
2023-08-21T10:34:15.719Z,5.22
2023-08-21T10:36:43.420Z,5.60
2023-08-21T10:39:20.816Z,5.65
2023-08-21T10:41:58.549Z,5.18
2023-08-21T10:44:39.669Z,5.05
2023-08-21T10:47:18.105Z,4.97
2023-08-21T10:49:49.825Z,5.55
2023-08-21T10:52:27.606Z,5.25
2023-08-21T10:54:56.677Z,5.13
2023-08-21T10:57:28.204Z,4.90
2023-08-21T10:59:56.845Z,5.20
2023-08-21T11:02:25.019Z,5.53
2023-08-21T11:04:53.023Z,4.82
2023-08-21T11:07:20.706Z,4.28
2023-08-21T11:09:48.535Z,4.80
2023-08-21T11:12:20.282Z,3.90
2023-08-21T11:14:47.978Z,3.95
2023-08-21T11:17:15.877Z,3.70
2023-08-21T11:19:44.272Z,3.53
2023-08-21T11:22:12.706Z,3.50
2023-08-21T11:24:42.274Z,3.60
2023-08-21T11:27:13.806Z,4.10
2023-08-21T11:29:42.651Z,3.53
2023-08-21T11:32:17.040Z,3.80
2023-08-21T11:34:48.780Z,3.45
2023-08-21T11:37:19.042Z,3.20
2023-08-21T11:39:49.140Z,3.35
2023-08-21T11:42:17.180Z,3.08
2023-08-21T11:44:49.184Z,3.10
2023-08-21T11:47:17.632Z,3.28
2023-08-21T11:49:46.091Z,3.40
2023-08-21T11:52:13.815Z,3.10
2023-08-21T11:54:42.385Z,3.00
2023-08-21T11:57:10.770Z,3.30
2023-08-21T11:59:38.400Z,3.17
2023-08-21T12:02:16.671Z,3.15
2023-08-21T12:04:44.761Z,3.08
2023-08-21T12:07:12.730Z,2.95
2023-08-21T12:09:40.565Z,2.83
2023-08-21T12:12:09.276Z,2.75
2023-08-21T12:14:40.630Z,2.60
2023-08-21T12:17:08.415Z,2.60
2023-08-21T12:19:36.026Z,2.90
2023-08-21T12:22:03.826Z,2.65
2023-08-21T12:24:31.434Z,2.58
2023-08-21T12:26:58.998Z,2.50
2023-08-21T12:29:26.504Z,2.72
2023-08-21T12:31:54.315Z,2.10
2023-08-21T12:34:21.965Z,2.70
2023-08-21T12:36:52.153Z,2.80
2023-08-21T12:39:20.177Z,2.60
2023-08-21T12:41:47.925Z,2.25
2023-08-21T12:44:16.099Z,2.60
2023-08-21T12:46:44.169Z,2.20
2023-08-21T12:49:11.806Z,2.40
2023-08-21T12:51:40.002Z,2.40
2023-08-21T12:54:07.967Z,2.40
2023-08-21T12:56:35.654Z,2.28
2023-08-21T12:59:04.316Z,2.65
2023-08-21T13:01:33.160Z,2.30
2023-08-21T13:04:00.712Z,2.30
2023-08-21T13:06:28.407Z,2.20
2023-08-21T13:08:56.087Z,2.53
2023-08-21T13:11:26.374Z,2.40
2023-08-21T13:13:53.964Z,2.30
2023-08-21T13:16:22.110Z,2.20
2023-08-21T13:18:49.631Z,1.98
2023-08-21T13:23:48.004Z,2.38
2023-08-21T13:26:15.596Z,2.13
2023-08-21T13:28:43.153Z,2.00
2023-08-21T13:31:12.092Z,2.03
2023-08-21T13:33:47.845Z,2.30
2023-08-21T13:36:17.898Z,1.98
2023-08-21T13:38:46.062Z,1.90
2023-08-21T13:41:14.021Z,2.10
2023-08-21T13:43:46.242Z,1.80
2023-08-21T13:46:14.652Z,1.83
2023-08-21T13:48:42.770Z,1.85
2023-08-21T13:51:10.432Z,2.10
2023-08-21T13:53:38.070Z,1.90
2023-08-21T13:56:06.345Z,1.77
2023-08-21T13:58:35.870Z,1.73
2023-08-21T14:01:04.879Z,1.90
2023-08-21T14:03:32.428Z,2.00
2023-08-21T14:06:00.067Z,1.88
2023-08-21T14:08:27.702Z,1.95
2023-08-21T14:10:55.444Z,1.85
2023-08-21T14:13:23.258Z,2.17
2023-08-21T14:15:50.837Z,1.80
2023-08-21T14:18:18.465Z,2.00
2023-08-21T14:20:46.080Z,2.05
2023-08-21T14:23:13.666Z,1.90
2023-08-21T14:25:41.433Z,2.03
2023-08-21T14:28:09.037Z,1.80
2023-08-21T14:30:36.984Z,1.85
2023-08-21T14:33:05.238Z,2.00
2023-08-21T14:35:32.830Z,2.13
2023-08-21T14:38:00.357Z,2.00
2023-08-21T14:40:28.236Z,1.85
2023-08-21T14:42:55.750Z,2.10
2023-08-21T14:45:23.445Z,1.90
2023-08-21T14:47:51.022Z,2.25
2023-08-21T14:50:18.640Z,2.13
2023-08-21T14:52:46.223Z,2.10
2023-08-21T14:55:13.878Z,1.95
2023-08-21T14:57:41.472Z,2.15
2023-08-21T15:00:12.372Z,2.10
2023-08-21T15:02:40.198Z,2.50
2023-08-21T15:05:08.287Z,2.30
2023-08-21T15:07:36.035Z,2.20
2023-08-21T15:10:03.691Z,2.00
2023-08-21T15:12:31.326Z,2.00
2023-08-21T15:14:59.329Z,2.17
2023-08-21T15:17:26.925Z,2.20
2023-08-21T15:19:55.192Z,2.10
2023-08-21T15:22:22.797Z,2.10
2023-08-21T15:24:50.404Z,2.00
2023-08-21T15:27:18.621Z,1.88
2023-08-21T15:29:46.256Z,2.28
2023-08-21T15:32:14.005Z,2.00
2023-08-21T15:34:41.651Z,1.73
2023-08-21T15:37:09.956Z,2.53
2023-08-21T15:39:37.959Z,2.55
2023-08-21T15:42:05.840Z,2.15
2023-08-21T15:44:33.507Z,2.30
2023-08-21T15:47:24.024Z,2.28
2023-08-21T15:49:48.794Z,2.40
2023-08-21T15:52:16.552Z,2.30
2023-08-21T15:54:44.111Z,2.05
2023-08-21T15:57:11.846Z,2.10
2023-08-21T15:59:40.182Z,2.38
2023-08-21T16:02:08.534Z,2.50
2023-08-21T16:04:36.608Z,2.25
2023-08-21T16:07:04.218Z,2.40
2023-08-21T16:09:32.265Z,2.67
2023-08-21T16:11:59.879Z,2.63
2023-08-21T16:14:27.617Z,3.70
2023-08-21T16:16:57.620Z,4.35
2023-08-21T16:19:25.245Z,4.63
2023-08-21T16:21:52.969Z,4.40
2023-08-21T16:24:20.974Z,3.85
2023-08-21T16:26:48.554Z,4.03
2023-08-21T16:29:18.382Z,4.05
2023-08-21T16:31:46.160Z,3.60
2023-08-21T16:34:15.101Z,3.80
2023-08-21T16:36:45.466Z,3.65
2023-08-21T16:39:13.461Z,3.65
2023-08-21T16:41:42.022Z,4.07
2023-08-21T16:44:09.952Z,3.47
2023-08-21T16:46:38.233Z,3.63
2023-08-21T16:49:07.086Z,4.18
2023-08-21T16:51:34.937Z,3.60
2023-08-21T16:54:02.866Z,3.80
2023-08-21T16:56:30.413Z,4.28
2023-08-21T16:58:58.082Z,4.13
2023-08-21T17:01:26.035Z,4.70
2023-08-21T17:03:53.863Z,3.70
2023-08-21T17:06:21.535Z,3.80
2023-08-21T17:08:49.113Z,3.28
2023-08-21T17:11:16.640Z,3.67
2023-08-21T17:13:46.548Z,3.35
2023-08-21T17:16:14.543Z,4.37
2023-08-21T17:18:42.556Z,3.47
2023-08-21T17:21:10.170Z,3.78
2023-08-21T17:23:37.666Z,3.92
2023-08-21T17:26:05.247Z,4.85
2023-08-21T17:28:32.806Z,4.75
2023-08-21T17:31:02.133Z,5.25
2023-08-21T17:33:29.684Z,5.25
2023-08-21T17:35:57.326Z,4.60
2023-08-21T17:38:24.996Z,4.47
2023-08-21T17:40:52.556Z,4.20
2023-08-21T17:43:20.176Z,4.07
2023-08-21T17:45:47.818Z,4.07
2023-08-21T17:48:15.558Z,4.82
2023-08-21T17:50:43.915Z,3.78
2023-08-21T17:53:11.923Z,3.90
2023-08-21T17:55:39.588Z,4.38
2023-08-21T17:58:08.284Z,4.55
2023-08-21T18:00:35.822Z,4.18
2023-08-21T18:03:03.925Z,4.43
2023-08-21T18:05:32.439Z,3.53
2023-08-21T18:08:00.927Z,4.18
2023-08-21T18:10:28.433Z,3.88
2023-08-21T18:12:56.022Z,3.80
2023-08-21T18:15:23.705Z,4.00
2023-08-21T18:17:51.252Z,4.05
2023-08-21T18:20:18.971Z,5.32
2023-08-21T18:22:46.557Z,6.88
2023-08-21T18:25:14.070Z,6.38
2023-08-21T18:27:41.894Z,6.38
2023-08-21T18:30:19.075Z,5.68
2023-08-21T18:32:46.654Z,6.18
2023-08-21T18:35:14.204Z,5.75
2023-08-21T18:37:41.926Z,4.82
2023-08-21T18:40:09.936Z,5.03
2023-08-21T18:42:38.898Z,5.22
2023-08-21T18:45:06.746Z,3.72
2023-08-21T18:47:35.742Z,3.63
2023-08-21T18:50:05.162Z,6.10
2023-08-21T18:52:32.785Z,4.13
2023-08-21T18:55:00.491Z,3.75
2023-08-21T18:57:28.727Z,3.60
2023-08-21T18:59:56.220Z,4.00
2023-08-21T19:02:23.806Z,4.25
2023-08-21T19:04:51.454Z,3.80
2023-08-21T19:07:19.087Z,3.95
2023-08-21T19:09:46.667Z,3.55
2023-08-21T19:12:14.192Z,3.70
2023-08-21T19:14:41.710Z,3.88
2023-08-21T19:17:09.304Z,3.75
2023-08-21T19:19:36.825Z,3.70
2023-08-21T19:22:04.446Z,3.95
2023-08-21T19:24:32.183Z,3.90
2023-08-21T19:27:00.191Z,3.65
2023-08-21T19:29:27.893Z,3.97
2023-08-21T19:31:55.531Z,3.97
2023-08-21T19:34:23.752Z,4.45
2023-08-21T19:36:51.316Z,3.83
2023-08-21T19:39:18.915Z,4.15
2023-08-21T19:41:46.665Z,4.07
2023-08-21T19:44:14.128Z,3.90
2023-08-21T19:46:41.712Z,4.10
2023-08-21T19:49:09.298Z,4.30
2023-08-21T19:51:36.828Z,4.25
2023-08-21T19:54:05.019Z,4.13
2023-08-21T19:56:32.536Z,4.00
2023-08-21T19:59:00.057Z,4.10
2023-08-21T20:01:27.672Z,3.85
2023-08-21T20:03:55.269Z,4.47
2023-08-21T20:06:22.752Z,4.22
2023-08-21T20:08:50.691Z,4.25
2023-08-21T20:11:18.275Z,3.92
2023-08-21T20:13:46.464Z,4.00
2023-08-21T20:16:14.119Z,4.60
2023-08-21T20:18:41.702Z,3.80
2023-08-21T20:21:19.346Z,4.40
2023-08-21T20:23:47.745Z,4.03
2023-08-21T20:26:15.307Z,4.30
2023-08-21T20:28:43.036Z,4.35
2023-08-21T20:31:10.812Z,3.72
2023-08-21T20:33:38.422Z,4.10
2023-08-21T20:36:06.095Z,3.92
2023-08-21T20:38:33.626Z,3.92
2023-08-21T20:41:05.077Z,4.43
2023-08-21T20:43:34.345Z,4.40
2023-08-21T20:46:02.982Z,4.18
2023-08-21T20:48:30.600Z,4.13
2023-08-21T20:50:58.433Z,4.10
2023-08-21T20:53:26.464Z,4.07
2023-08-21T20:55:58.190Z,3.80
2023-08-21T20:58:25.979Z,3.88
2023-08-21T21:00:53.594Z,4.10
2023-08-21T21:03:21.261Z,4.13
2023-08-21T21:05:48.809Z,3.97
2023-08-21T21:08:16.461Z,3.95
2023-08-21T21:10:44.228Z,4.03
2023-08-21T21:13:11.763Z,4.03
2023-08-21T21:15:39.310Z,4.07
2023-08-21T21:18:07.648Z,4.55
2023-08-21T21:20:35.924Z,3.97
2023-08-21T21:23:03.691Z,4.32
2023-08-21T21:25:31.251Z,4.07
2023-08-21T21:27:58.807Z,4.30
2023-08-21T21:30:26.980Z,4.20
2023-08-21T21:32:54.613Z,4.38
2023-08-21T21:35:22.170Z,4.20
2023-08-21T21:37:49.748Z,4.85
2023-08-21T21:40:17.460Z,4.63
2023-08-21T21:42:45.079Z,4.28
2023-08-21T21:45:12.755Z,5.00
2023-08-21T21:47:40.574Z,4.20
2023-08-21T21:50:08.635Z,4.32
2023-08-21T21:52:36.534Z,4.75
2023-08-21T21:55:04.170Z,4.43
2023-08-21T21:57:31.688Z,4.50
2023-08-21T21:59:59.276Z,4.47
2023-08-21T22:02:27.012Z,4.72
2023-08-21T22:04:54.565Z,4.10
2023-08-21T22:07:22.146Z,4.60
2023-08-21T22:09:49.829Z,4.95
2023-08-21T22:12:17.547Z,5.00
2023-08-21T22:14:45.193Z,4.95
2023-08-21T22:17:12.742Z,4.80
2023-08-21T22:19:40.723Z,4.90
2023-08-21T22:22:08.454Z,4.63
2023-08-21T22:24:36.108Z,4.78
2023-08-21T22:27:03.729Z,4.82
2023-08-21T22:29:31.901Z,4.97
2023-08-21T22:31:59.534Z,5.47
2023-08-21T22:34:27.041Z,5.00
2023-08-21T22:36:55.839Z,4.53
2023-08-21T22:39:23.462Z,5.00
2023-08-21T22:41:51.126Z,5.00
2023-08-21T22:44:18.664Z,5.25
2023-08-21T22:46:46.310Z,5.00
2023-08-21T22:49:13.840Z,4.80
2023-08-21T22:51:41.417Z,4.82
2023-08-21T22:54:09.183Z,4.78
2023-08-21T22:56:36.753Z,5.07
2023-08-21T22:59:04.367Z,5.10
2023-08-21T23:01:31.944Z,4.90
2023-08-21T23:04:00.244Z,5.28
2023-08-21T23:06:27.861Z,5.30
2023-08-21T23:08:55.565Z,5.00
2023-08-21T23:11:23.306Z,5.20
2023-08-21T23:13:51.306Z,5.25
2023-08-21T23:16:18.981Z,5.15
2023-08-21T23:18:46.550Z,5.30
2023-08-21T23:21:15.782Z,4.72
2023-08-21T23:23:43.396Z,5.15
2023-08-21T23:26:10.933Z,5.32
2023-08-21T23:28:38.564Z,5.57
2023-08-21T23:31:06.254Z,5.18
2023-08-21T23:33:33.923Z,5.05
2023-08-21T23:36:01.509Z,5.68
2023-08-21T23:38:29.432Z,5.30
2023-08-21T23:40:57.542Z,5.20
2023-08-21T23:43:25.035Z,5.00
2023-08-21T23:45:52.627Z,5.53
2023-08-21T23:48:20.322Z,5.00
2023-08-21T23:50:47.990Z,5.00
2023-08-21T23:53:15.517Z,4.63
2023-08-21T23:55:43.122Z,4.93
2023-08-21T23:58:10.684Z,4.80
